sensor_id;sensor_type;location;lat;lon;timestamp;temperature;humidity
29093;DHT22;16167;48.768;14.984;2023-05-07T00:01:34;10.00;90.80
29093;DHT22;16167;48.768;14.984;2023-05-07T00:04:04;10.00;94.60
29093;DHT22;16167;48.768;14.984;2023-05-07T00:06:32;9.90;95.60
29093;DHT22;16167;48.768;14.984;2023-05-07T00:09:00;9.90;95.50
29093;DHT22;16167;48.768;14.984;2023-05-07T00:11:28;9.90;92.70
29093;DHT22;16167;48.768;14.984;2023-05-07T00:13:56;9.90;90.20
29093;DHT22;16167;48.768;14.984;2023-05-07T00:16:24;9.80;95.60
29093;DHT22;16167;48.768;14.984;2023-05-07T00:18:52;9.80;97.60
29093;DHT22;16167;48.768;14.984;2023-05-07T00:21:21;9.70;95.30
29093;DHT22;16167;48.768;14.984;2023-05-07T00:23:49;9.70;95.50
29093;DHT22;16167;48.768;14.984;2023-05-07T00:26:17;9.60;96.60
29093;DHT22;16167;48.768;14.984;2023-05-07T00:28:45;9.60;96.80
29093;DHT22;16167;48.768;14.984;2023-05-07T00:31:12;9.60;95.20
29093;DHT22;16167;48.768;14.984;2023-05-07T00:33:40;9.50;98.30
29093;DHT22;16167;48.768;14.984;2023-05-07T00:36:08;9.50;98.20
29093;DHT22;16167;48.768;14.984;2023-05-07T00:38:38;9.40;98.70
29093;DHT22;16167;48.768;14.984;2023-05-07T00:41:06;9.40;96.10
29093;DHT22;16167;48.768;14.984;2023-05-07T00:43:34;9.30;94.40
29093;DHT22;16167;48.768;14.984;2023-05-07T00:46:02;9.30;91.80
29093;DHT22;16167;48.768;14.984;2023-05-07T00:48:30;9.30;92.90
29093;DHT22;16167;48.768;14.984;2023-05-07T00:50:57;9.30;99.20
29093;DHT22;16167;48.768;14.984;2023-05-07T00:53:25;9.20;96.90
29093;DHT22;16167;48.768;14.984;2023-05-07T00:55:55;9.20;99.00
29093;DHT22;16167;48.768;14.984;2023-05-07T00:58:23;9.20;99.90
29093;DHT22;16167;48.768;14.984;2023-05-07T01:00:51;9.20;99.90
29093;DHT22;16167;48.768;14.984;2023-05-07T01:03:19;9.20;99.90
29093;DHT22;16167;48.768;14.984;2023-05-07T01:05:48;9.20;99.90
29093;DHT22;16167;48.768;14.984;2023-05-07T01:08:18;9.20;99.90
29093;DHT22;16167;48.768;14.984;2023-05-07T01:10:47;9.20;98.90
29093;DHT22;16167;48.768;14.984;2023-05-07T01:13:17;9.20;97.20
29093;DHT22;16167;48.768;14.984;2023-05-07T01:15:46;9.10;95.10
29093;DHT22;16167;48.768;14.984;2023-05-07T01:18:14;9.10;93.50
29093;DHT22;16167;48.768;14.984;2023-05-07T01:20:41;9.00;94.70
29093;DHT22;16167;48.768;14.984;2023-05-07T01:23:11;9.00;94.60
29093;DHT22;16167;48.768;14.984;2023-05-07T01:25:39;8.90;94.40
29093;DHT22;16167;48.768;14.984;2023-05-07T01:28:07;8.90;95.40
29093;DHT22;16167;48.768;14.984;2023-05-07T01:30:34;8.80;98.60
29093;DHT22;16167;48.768;14.984;2023-05-07T01:33:04;8.80;99.50
29093;DHT22;16167;48.768;14.984;2023-05-07T01:35:36;8.80;99.60
29093;DHT22;16167;48.768;14.984;2023-05-07T01:38:05;8.80;99.90
29093;DHT22;16167;48.768;14.984;2023-05-07T01:40:34;8.80;97.10
29093;DHT22;16167;48.768;14.984;2023-05-07T01:43:02;8.70;95.70
29093;DHT22;16167;48.768;14.984;2023-05-07T01:45:30;8.70;98.90
29093;DHT22;16167;48.768;14.984;2023-05-07T01:47:59;8.70;99.00
29093;DHT22;16167;48.768;14.984;2023-05-07T01:50:27;8.60;99.90
29093;DHT22;16167;48.768;14.984;2023-05-07T01:52:55;8.60;99.90
29093;DHT22;16167;48.768;14.984;2023-05-07T01:55:23;8.50;99.90
29093;DHT22;16167;48.768;14.984;2023-05-07T01:57:52;8.50;99.50
29093;DHT22;16167;48.768;14.984;2023-05-07T02:00:20;8.50;99.90
29093;DHT22;16167;48.768;14.984;2023-05-07T02:02:48;8.40;98.10
29093;DHT22;16167;48.768;14.984;2023-05-07T02:05:16;8.40;98.10
29093;DHT22;16167;48.768;14.984;2023-05-07T02:07:44;8.40;99.90
29093;DHT22;16167;48.768;14.984;2023-05-07T02:10:12;8.40;99.90
29093;DHT22;16167;48.768;14.984;2023-05-07T02:12:40;8.50;99.90
29093;DHT22;16167;48.768;14.984;2023-05-07T02:15:10;8.50;99.90
29093;DHT22;16167;48.768;14.984;2023-05-07T02:17:39;8.60;99.90
29093;DHT22;16167;48.768;14.984;2023-05-07T02:20:07;8.60;99.90
29093;DHT22;16167;48.768;14.984;2023-05-07T02:22:39;8.70;99.90
29093;DHT22;16167;48.768;14.984;2023-05-07T02:25:07;8.70;99.90
29093;DHT22;16167;48.768;14.984;2023-05-07T02:27:35;8.70;99.90
29093;DHT22;16167;48.768;14.984;2023-05-07T02:30:04;8.70;99.90
29093;DHT22;16167;48.768;14.984;2023-05-07T02:32:33;8.70;99.90
29093;DHT22;16167;48.768;14.984;2023-05-07T02:35:01;8.70;99.90
29093;DHT22;16167;48.768;14.984;2023-05-07T02:37:29;8.70;99.90
29093;DHT22;16167;48.768;14.984;2023-05-07T02:39:57;8.80;99.90
29093;DHT22;16167;48.768;14.984;2023-05-07T02:42:24;8.80;99.90
29093;DHT22;16167;48.768;14.984;2023-05-07T02:44:52;8.90;99.90
29093;DHT22;16167;48.768;14.984;2023-05-07T02:47:20;8.90;99.90
29093;DHT22;16167;48.768;14.984;2023-05-07T02:49:50;8.90;99.90
29093;DHT22;16167;48.768;14.984;2023-05-07T02:52:18;8.90;99.90
29093;DHT22;16167;48.768;14.984;2023-05-07T02:54:46;8.90;99.90
29093;DHT22;16167;48.768;14.984;2023-05-07T02:57:14;8.90;99.90
29093;DHT22;16167;48.768;14.984;2023-05-07T02:59:41;9.00;99.90
29093;DHT22;16167;48.768;14.984;2023-05-07T03:02:09;9.00;99.90
29093;DHT22;16167;48.768;14.984;2023-05-07T03:04:40;9.10;99.90
29093;DHT22;16167;48.768;14.984;2023-05-07T03:07:09;9.10;99.90
29093;DHT22;16167;48.768;14.984;2023-05-07T03:09:37;9.10;99.90
29093;DHT22;16167;48.768;14.984;2023-05-07T03:12:05;9.10;99.90
29093;DHT22;16167;48.768;14.984;2023-05-07T03:14:33;9.10;99.90
29093;DHT22;16167;48.768;14.984;2023-05-07T03:17:01;9.10;99.90
29093;DHT22;16167;48.768;14.984;2023-05-07T03:19:29;9.10;99.90
29093;DHT22;16167;48.768;14.984;2023-05-07T03:21:57;9.20;99.90
29093;DHT22;16167;48.768;14.984;2023-05-07T03:24:26;9.20;99.90
29093;DHT22;16167;48.768;14.984;2023-05-07T03:26:54;9.10;99.90
29093;DHT22;16167;48.768;14.984;2023-05-07T03:29:22;9.20;99.90
29093;DHT22;16167;48.768;14.984;2023-05-07T03:31:50;9.20;99.90
29093;DHT22;16167;48.768;14.984;2023-05-07T03:34:18;9.20;99.90
29093;DHT22;16167;48.768;14.984;2023-05-07T03:36:48;9.20;99.90
29093;DHT22;16167;48.768;14.984;2023-05-07T03:39:16;9.20;99.90
29093;DHT22;16167;48.768;14.984;2023-05-07T03:41:45;9.20;99.90
29093;DHT22;16167;48.768;14.984;2023-05-07T03:44:13;9.20;99.90
29093;DHT22;16167;48.768;14.984;2023-05-07T03:46:41;9.20;99.90
29093;DHT22;16167;48.768;14.984;2023-05-07T03:49:09;9.30;99.90
29093;DHT22;16167;48.768;14.984;2023-05-07T03:51:37;9.30;99.90
29093;DHT22;16167;48.768;14.984;2023-05-07T03:54:05;9.30;99.90
29093;DHT22;16167;48.768;14.984;2023-05-07T03:56:33;9.30;99.90
29093;DHT22;16167;48.768;14.984;2023-05-07T03:59:02;9.30;99.90
29093;DHT22;16167;48.768;14.984;2023-05-07T04:01:30;9.30;99.90
29093;DHT22;16167;48.768;14.984;2023-05-07T04:03:58;9.30;99.90
29093;DHT22;16167;48.768;14.984;2023-05-07T04:06:26;9.20;99.90
29093;DHT22;16167;48.768;14.984;2023-05-07T04:08:54;9.20;99.90
29093;DHT22;16167;48.768;14.984;2023-05-07T04:11:22;9.30;99.90
29093;DHT22;16167;48.768;14.984;2023-05-07T04:13:50;9.30;99.90
29093;DHT22;16167;48.768;14.984;2023-05-07T04:16:19;9.30;99.90
29093;DHT22;16167;48.768;14.984;2023-05-07T04:18:47;9.40;99.90
29093;DHT22;16167;48.768;14.984;2023-05-07T04:21:15;9.40;99.90
29093;DHT22;16167;48.768;14.984;2023-05-07T04:23:43;9.40;99.90
29093;DHT22;16167;48.768;14.984;2023-05-07T04:26:11;9.50;99.90
29093;DHT22;16167;48.768;14.984;2023-05-07T04:28:39;9.50;99.90
29093;DHT22;16167;48.768;14.984;2023-05-07T04:31:07;9.50;99.90
29093;DHT22;16167;48.768;14.984;2023-05-07T04:33:36;9.50;99.90
29093;DHT22;16167;48.768;14.984;2023-05-07T04:36:04;9.60;99.90
29093;DHT22;16167;48.768;14.984;2023-05-07T04:38:32;9.60;99.90
29093;DHT22;16167;48.768;14.984;2023-05-07T04:41:02;9.60;99.90
29093;DHT22;16167;48.768;14.984;2023-05-07T04:43:30;9.70;99.90
29093;DHT22;16167;48.768;14.984;2023-05-07T04:45:58;9.70;99.90
29093;DHT22;16167;48.768;14.984;2023-05-07T04:48:26;9.70;99.90
29093;DHT22;16167;48.768;14.984;2023-05-07T04:50:56;9.70;99.90
29093;DHT22;16167;48.768;14.984;2023-05-07T04:53:24;9.70;99.90
29093;DHT22;16167;48.768;14.984;2023-05-07T04:55:54;9.80;99.90
29093;DHT22;16167;48.768;14.984;2023-05-07T04:58:22;9.80;99.90
29093;DHT22;16167;48.768;14.984;2023-05-07T05:00:50;9.90;99.90
29093;DHT22;16167;48.768;14.984;2023-05-07T05:03:18;10.00;99.90
29093;DHT22;16167;48.768;14.984;2023-05-07T05:05:46;10.10;99.90
29093;DHT22;16167;48.768;14.984;2023-05-07T05:08:17;10.10;99.90
29093;DHT22;16167;48.768;14.984;2023-05-07T05:10:45;10.20;99.90
29093;DHT22;16167;48.768;14.984;2023-05-07T05:13:15;10.30;99.90
29093;DHT22;16167;48.768;14.984;2023-05-07T05:15:43;10.40;99.90
29093;DHT22;16167;48.768;14.984;2023-05-07T05:18:12;10.40;99.90
29093;DHT22;16167;48.768;14.984;2023-05-07T05:20:40;10.50;99.90
29093;DHT22;16167;48.768;14.984;2023-05-07T05:23:08;10.60;99.80
29093;DHT22;16167;48.768;14.984;2023-05-07T05:25:37;10.70;99.20
29093;DHT22;16167;48.768;14.984;2023-05-07T05:28:05;10.80;97.40
29093;DHT22;16167;48.768;14.984;2023-05-07T05:30:33;11.00;96.30
29093;DHT22;16167;48.768;14.984;2023-05-07T05:33:01;11.20;95.30
29093;DHT22;16167;48.768;14.984;2023-05-07T05:35:29;11.40;92.00
29093;DHT22;16167;48.768;14.984;2023-05-07T05:37:58;11.50;78.00
29093;DHT22;16167;48.768;14.984;2023-05-07T05:40:26;11.60;70.10
29093;DHT22;16167;48.768;14.984;2023-05-07T05:42:55;11.60;67.70
29093;DHT22;16167;48.768;14.984;2023-05-07T05:45:23;11.70;64.80
29093;DHT22;16167;48.768;14.984;2023-05-07T05:47:51;11.70;68.40
29093;DHT22;16167;48.768;14.984;2023-05-07T05:50:19;11.80;66.30
29093;DHT22;16167;48.768;14.984;2023-05-07T05:52:47;12.00;68.70
29093;DHT22;16167;48.768;14.984;2023-05-07T05:55:15;12.10;61.10
29093;DHT22;16167;48.768;14.984;2023-05-07T05:57:43;12.30;59.10
29093;DHT22;16167;48.768;14.984;2023-05-07T06:00:13;12.30;45.80
29093;DHT22;16167;48.768;14.984;2023-05-07T06:02:41;12.30;48.80
29093;DHT22;16167;48.768;14.984;2023-05-07T06:05:09;12.40;49.70
29093;DHT22;16167;48.768;14.984;2023-05-07T06:07:37;12.50;45.20
29093;DHT22;16167;48.768;14.984;2023-05-07T06:10:06;12.50;39.00
29093;DHT22;16167;48.768;14.984;2023-05-07T06:12:34;12.60;41.10
29093;DHT22;16167;48.768;14.984;2023-05-07T06:15:02;12.70;35.10
29093;DHT22;16167;48.768;14.984;2023-05-07T06:17:31;12.70;33.20
29093;DHT22;16167;48.768;14.984;2023-05-07T06:19:59;12.80;28.90
29093;DHT22;16167;48.768;14.984;2023-05-07T06:22:27;12.90;26.60
29093;DHT22;16167;48.768;14.984;2023-05-07T06:24:55;12.90;25.80
29093;DHT22;16167;48.768;14.984;2023-05-07T06:27:23;13.00;29.20
29093;DHT22;16167;48.768;14.984;2023-05-07T06:29:51;13.20;32.50
29093;DHT22;16167;48.768;14.984;2023-05-07T06:32:19;13.40;28.20
29093;DHT22;16167;48.768;14.984;2023-05-07T06:34:48;13.50;25.20
29093;DHT22;16167;48.768;14.984;2023-05-07T06:37:16;13.80;24.20
29093;DHT22;16167;48.768;14.984;2023-05-07T06:39:44;13.80;19.20
29093;DHT22;16167;48.768;14.984;2023-05-07T06:42:12;13.70;8.20
29093;DHT22;16167;48.768;14.984;2023-05-07T06:44:40;13.80;17.30
29093;DHT22;16167;48.768;14.984;2023-05-07T06:47:08;13.80;21.60
29093;DHT22;16167;48.768;14.984;2023-05-07T06:49:36;13.90;18.70
29093;DHT22;16167;48.768;14.984;2023-05-07T06:52:05;14.00;15.80
29093;DHT22;16167;48.768;14.984;2023-05-07T06:54:33;14.00;12.90
29093;DHT22;16167;48.768;14.984;2023-05-07T06:57:01;14.20;15.70
29093;DHT22;16167;48.768;14.984;2023-05-07T06:59:29;14.40;17.80
29093;DHT22;16167;48.768;14.984;2023-05-07T07:01:56;14.70;13.80
29093;DHT22;16167;48.768;14.984;2023-05-07T07:04:24;15.00;10.40
29093;DHT22;16167;48.768;14.984;2023-05-07T07:06:53;15.40;7.20
29093;DHT22;16167;48.768;14.984;2023-05-07T07:09:22;15.50;6.20
29093;DHT22;16167;48.768;14.984;2023-05-07T07:11:50;15.80;6.00
29093;DHT22;16167;48.768;14.984;2023-05-07T07:14:18;16.00;6.60
29093;DHT22;16167;48.768;14.984;2023-05-07T07:16:46;15.90;10.70
29093;DHT22;16167;48.768;14.984;2023-05-07T07:19:14;15.90;12.50
29093;DHT22;16167;48.768;14.984;2023-05-07T07:21:42;15.90;12.80
29093;DHT22;16167;48.768;14.984;2023-05-07T07:24:11;15.80;13.80
29093;DHT22;16167;48.768;14.984;2023-05-07T07:26:40;15.80;14.50
29093;DHT22;16167;48.768;14.984;2023-05-07T07:29:09;15.80;15.10
29093;DHT22;16167;48.768;14.984;2023-05-07T07:31:37;15.90;15.70
29093;DHT22;16167;48.768;14.984;2023-05-07T07:34:05;15.90;16.90
29093;DHT22;16167;48.768;14.984;2023-05-07T07:36:32;16.00;12.70
29093;DHT22;16167;48.768;14.984;2023-05-07T07:39:12;16.20;15.50
29093;DHT22;16167;48.768;14.984;2023-05-07T07:41:41;16.20;18.00
29093;DHT22;16167;48.768;14.984;2023-05-07T07:44:09;16.20;18.40
29093;DHT22;16167;48.768;14.984;2023-05-07T07:46:42;16.20;17.70
29093;DHT22;16167;48.768;14.984;2023-05-07T07:49:10;16.20;18.00
29093;DHT22;16167;48.768;14.984;2023-05-07T07:51:37;16.10;18.90
29093;DHT22;16167;48.768;14.984;2023-05-07T07:54:05;16.20;19.70
29093;DHT22;16167;48.768;14.984;2023-05-07T07:56:33;16.20;20.10
29093;DHT22;16167;48.768;14.984;2023-05-07T07:59:03;16.20;16.10
29093;DHT22;16167;48.768;14.984;2023-05-07T08:01:31;16.20;18.10
29093;DHT22;16167;48.768;14.984;2023-05-07T08:03:59;16.30;18.10
29093;DHT22;16167;48.768;14.984;2023-05-07T08:06:29;16.30;18.40
29093;DHT22;16167;48.768;14.984;2023-05-07T08:08:57;16.30;18.60
29093;DHT22;16167;48.768;14.984;2023-05-07T08:11:25;16.40;22.30
29093;DHT22;16167;48.768;14.984;2023-05-07T08:13:53;16.30;24.90
29093;DHT22;16167;48.768;14.984;2023-05-07T08:16:22;16.30;22.80
29093;DHT22;16167;48.768;14.984;2023-05-07T08:18:50;16.30;21.70
29093;DHT22;16167;48.768;14.984;2023-05-07T08:21:18;16.30;24.50
29093;DHT22;16167;48.768;14.984;2023-05-07T08:23:46;16.30;24.70
29093;DHT22;16167;48.768;14.984;2023-05-07T08:26:14;16.40;24.60
29093;DHT22;16167;48.768;14.984;2023-05-07T08:28:42;16.50;26.00
29093;DHT22;16167;48.768;14.984;2023-05-07T08:31:10;16.60;27.80
29093;DHT22;16167;48.768;14.984;2023-05-07T08:33:39;16.70;24.10
29093;DHT22;16167;48.768;14.984;2023-05-07T08:36:07;16.80;24.80
29093;DHT22;16167;48.768;14.984;2023-05-07T08:38:35;16.90;27.40
29093;DHT22;16167;48.768;14.984;2023-05-07T08:41:03;17.00;26.50
29093;DHT22;16167;48.768;14.984;2023-05-07T08:43:34;17.10;27.00
29093;DHT22;16167;48.768;14.984;2023-05-07T08:46:03;17.30;29.70
29093;DHT22;16167;48.768;14.984;2023-05-07T08:48:35;17.50;34.00
29093;DHT22;16167;48.768;14.984;2023-05-07T08:51:05;17.70;36.10
29093;DHT22;16167;48.768;14.984;2023-05-07T08:53:33;17.90;36.50
29093;DHT22;16167;48.768;14.984;2023-05-07T08:56:01;18.00;34.30
29093;DHT22;16167;48.768;14.984;2023-05-07T08:58:30;18.00;35.20
29093;DHT22;16167;48.768;14.984;2023-05-07T09:00:57;18.10;36.60
29093;DHT22;16167;48.768;14.984;2023-05-07T09:03:26;18.30;39.60
29093;DHT22;16167;48.768;14.984;2023-05-07T09:05:54;18.40;37.60
29093;DHT22;16167;48.768;14.984;2023-05-07T09:08:25;18.50;36.30
29093;DHT22;16167;48.768;14.984;2023-05-07T09:10:53;18.70;33.20
29093;DHT22;16167;48.768;14.984;2023-05-07T09:13:22;18.90;36.10
29093;DHT22;16167;48.768;14.984;2023-05-07T09:15:50;19.50;36.30
29093;DHT22;16167;48.768;14.984;2023-05-07T09:18:18;19.50;40.60
29093;DHT22;16167;48.768;14.984;2023-05-07T09:20:46;19.50;38.60
29093;DHT22;16167;48.768;14.984;2023-05-07T09:23:13;19.40;40.40
29093;DHT22;16167;48.768;14.984;2023-05-07T09:25:43;19.40;40.80
29093;DHT22;16167;48.768;14.984;2023-05-07T09:28:11;19.30;40.40
29093;DHT22;16167;48.768;14.984;2023-05-07T09:30:38;19.20;39.70
29093;DHT22;16167;48.768;14.984;2023-05-07T09:33:06;19.20;39.40
29093;DHT22;16167;48.768;14.984;2023-05-07T09:35:34;19.20;39.80
29093;DHT22;16167;48.768;14.984;2023-05-07T09:38:02;19.00;42.40
29093;DHT22;16167;48.768;14.984;2023-05-07T09:40:31;18.80;41.90
29093;DHT22;16167;48.768;14.984;2023-05-07T09:43:09;18.80;37.70
29093;DHT22;16167;48.768;14.984;2023-05-07T09:45:38;18.80;39.20
29093;DHT22;16167;48.768;14.984;2023-05-07T09:48:06;18.80;38.60
29093;DHT22;16167;48.768;14.984;2023-05-07T09:50:36;18.80;39.70
29093;DHT22;16167;48.768;14.984;2023-05-07T09:53:06;18.80;41.20
29093;DHT22;16167;48.768;14.984;2023-05-07T09:55:34;18.90;37.70
29093;DHT22;16167;48.768;14.984;2023-05-07T09:58:03;19.00;40.00
29093;DHT22;16167;48.768;14.984;2023-05-07T10:00:33;19.10;39.10
29093;DHT22;16167;48.768;14.984;2023-05-07T10:03:01;19.20;39.40
29093;DHT22;16167;48.768;14.984;2023-05-07T10:05:30;19.30;39.50
29093;DHT22;16167;48.768;14.984;2023-05-07T10:07:58;19.40;39.10
29093;DHT22;16167;48.768;14.984;2023-05-07T10:10:30;19.50;39.40
29093;DHT22;16167;48.768;14.984;2023-05-07T10:12:58;19.60;38.10
29093;DHT22;16167;48.768;14.984;2023-05-07T10:15:26;19.80;39.50
29093;DHT22;16167;48.768;14.984;2023-05-07T10:17:56;19.90;39.20
29093;DHT22;16167;48.768;14.984;2023-05-07T10:20:25;19.90;41.00
29093;DHT22;16167;48.768;14.984;2023-05-07T10:22:53;20.10;38.10
29093;DHT22;16167;48.768;14.984;2023-05-07T10:25:25;20.50;40.60
29093;DHT22;16167;48.768;14.984;2023-05-07T10:27:53;21.00;37.60
29093;DHT22;16167;48.768;14.984;2023-05-07T10:30:25;21.10;41.10
29093;DHT22;16167;48.768;14.984;2023-05-07T10:32:59;21.20;44.60
29093;DHT22;16167;48.768;14.984;2023-05-07T10:35:36;21.20;42.90
29093;DHT22;16167;48.768;14.984;2023-05-07T10:38:05;21.50;43.40
29093;DHT22;16167;48.768;14.984;2023-05-07T10:40:33;21.50;42.70
29093;DHT22;16167;48.768;14.984;2023-05-07T10:43:01;21.50;44.60
29093;DHT22;16167;48.768;14.984;2023-05-07T10:45:34;21.60;39.90
29093;DHT22;16167;48.768;14.984;2023-05-07T10:48:07;21.50;37.60
29093;DHT22;16167;48.768;14.984;2023-05-07T10:51:17;21.30;41.50
29093;DHT22;16167;48.768;14.984;2023-05-07T10:53:45;21.30;41.60
29093;DHT22;16167;48.768;14.984;2023-05-07T11:01:49;22.00;47.30
29093;DHT22;16167;48.768;14.984;2023-05-07T11:04:18;22.80;45.50
29093;DHT22;16167;48.768;14.984;2023-05-07T11:12:47;22.70;40.00
29093;DHT22;16167;48.768;14.984;2023-05-07T11:15:15;22.50;40.30
29093;DHT22;16167;48.768;14.984;2023-05-07T11:17:59;22.50;36.20
29093;DHT22;16167;48.768;14.984;2023-05-07T11:23:18;22.80;36.00
29093;DHT22;16167;48.768;14.984;2023-05-07T11:26:07;22.80;37.60
29093;DHT22;16167;48.768;14.984;2023-05-07T11:28:36;23.00;39.50
29093;DHT22;16167;48.768;14.984;2023-05-07T11:31:04;23.00;35.90
29093;DHT22;16167;48.768;14.984;2023-05-07T11:33:33;22.70;32.40
29093;DHT22;16167;48.768;14.984;2023-05-07T11:36:02;22.70;33.80
29093;DHT22;16167;48.768;14.984;2023-05-07T11:38:34;22.60;37.90
29093;DHT22;16167;48.768;14.984;2023-05-07T11:41:02;22.70;38.40
29093;DHT22;16167;48.768;14.984;2023-05-07T11:43:31;23.00;37.80
29093;DHT22;16167;48.768;14.984;2023-05-07T11:46:04;23.80;38.70
29093;DHT22;16167;48.768;14.984;2023-05-07T11:48:33;24.30;34.60
29093;DHT22;16167;48.768;14.984;2023-05-07T11:51:01;25.00;34.40
29093;DHT22;16167;48.768;14.984;2023-05-07T11:53:36;25.50;32.20
29093;DHT22;16167;48.768;14.984;2023-05-07T11:56:07;25.50;28.60
29093;DHT22;16167;48.768;14.984;2023-05-07T11:58:35;24.70;29.30
29093;DHT22;16167;48.768;14.984;2023-05-07T12:01:03;24.00;30.70
29093;DHT22;16167;48.768;14.984;2023-05-07T12:03:32;24.00;29.70
29093;DHT22;16167;48.768;14.984;2023-05-07T12:06:02;24.60;32.30
29093;DHT22;16167;48.768;14.984;2023-05-07T12:08:30;25.10;31.50
29093;DHT22;16167;48.768;14.984;2023-05-07T12:10:59;25.50;27.30
29093;DHT22;16167;48.768;14.984;2023-05-07T12:13:27;25.80;29.10
29093;DHT22;16167;48.768;14.984;2023-05-07T12:15:55;25.90;28.20
29093;DHT22;16167;48.768;14.984;2023-05-07T12:18:23;26.40;29.10
29093;DHT22;16167;48.768;14.984;2023-05-07T12:20:52;26.70;30.00
29093;DHT22;16167;48.768;14.984;2023-05-07T12:23:20;26.50;24.50
29093;DHT22;16167;48.768;14.984;2023-05-07T12:25:48;26.10;27.30
29093;DHT22;16167;48.768;14.984;2023-05-07T12:28:17;25.70;27.70
29093;DHT22;16167;48.768;14.984;2023-05-07T12:30:46;25.30;30.20
29093;DHT22;16167;48.768;14.984;2023-05-07T12:33:15;25.00;28.20
29093;DHT22;16167;48.768;14.984;2023-05-07T12:35:43;24.50;27.60
29093;DHT22;16167;48.768;14.984;2023-05-07T12:38:12;24.40;28.00
29093;DHT22;16167;48.768;14.984;2023-05-07T12:40:41;24.80;26.60
29093;DHT22;16167;48.768;14.984;2023-05-07T12:43:14;25.30;28.30
29093;DHT22;16167;48.768;14.984;2023-05-07T12:45:44;25.80;26.70
29093;DHT22;16167;48.768;14.984;2023-05-07T12:48:12;25.90;24.50
29093;DHT22;16167;48.768;14.984;2023-05-07T12:50:40;25.70;27.20
29093;DHT22;16167;48.768;14.984;2023-05-07T12:53:10;24.80;24.90
29093;DHT22;16167;48.768;14.984;2023-05-07T12:55:41;24.40;27.50
29093;DHT22;16167;48.768;14.984;2023-05-07T12:58:14;23.80;29.10
29093;DHT22;16167;48.768;14.984;2023-05-07T13:00:44;24.50;30.80
29093;DHT22;16167;48.768;14.984;2023-05-07T13:03:16;25.50;32.90
29093;DHT22;16167;48.768;14.984;2023-05-07T13:05:48;26.30;30.90
29093;DHT22;16167;48.768;14.984;2023-05-07T13:08:29;27.00;28.60
29093;DHT22;16167;48.768;14.984;2023-05-07T13:10:58;27.40;27.50
29093;DHT22;16167;48.768;14.984;2023-05-07T13:13:26;27.80;24.80
29093;DHT22;16167;48.768;14.984;2023-05-07T13:15:59;27.90;24.40
29093;DHT22;16167;48.768;14.984;2023-05-07T13:18:28;27.40;25.70
29093;DHT22;16167;48.768;14.984;2023-05-07T13:20:56;27.00;27.70
29093;DHT22;16167;48.768;14.984;2023-05-07T13:23:24;27.00;24.80
29093;DHT22;16167;48.768;14.984;2023-05-07T13:25:52;26.40;26.40
29093;DHT22;16167;48.768;14.984;2023-05-07T13:28:21;25.90;27.90
29093;DHT22;16167;48.768;14.984;2023-05-07T13:30:49;26.30;26.90
29093;DHT22;16167;48.768;14.984;2023-05-07T13:33:19;26.80;28.80
29093;DHT22;16167;48.768;14.984;2023-05-07T13:35:47;27.20;27.10
29093;DHT22;16167;48.768;14.984;2023-05-07T13:38:15;27.50;28.10
29093;DHT22;16167;48.768;14.984;2023-05-07T13:40:43;27.50;24.00
29093;DHT22;16167;48.768;14.984;2023-05-07T13:43:11;27.20;23.60
29093;DHT22;16167;48.768;14.984;2023-05-07T13:45:39;27.50;25.40
29093;DHT22;16167;48.768;14.984;2023-05-07T13:48:07;28.00;24.90
29093;DHT22;16167;48.768;14.984;2023-05-07T13:50:36;28.20;24.30
29093;DHT22;16167;48.768;14.984;2023-05-07T13:53:04;28.50;24.90
29093;DHT22;16167;48.768;14.984;2023-05-07T13:55:32;28.70;23.40
29093;DHT22;16167;48.768;14.984;2023-05-07T13:58:01;28.90;25.70
29093;DHT22;16167;48.768;14.984;2023-05-07T14:00:33;29.00;24.60
29093;DHT22;16167;48.768;14.984;2023-05-07T14:03:01;29.00;20.80
29093;DHT22;16167;48.768;14.984;2023-05-07T14:05:29;28.80;21.20
29093;DHT22;16167;48.768;14.984;2023-05-07T14:07:58;28.90;23.90
29093;DHT22;16167;48.768;14.984;2023-05-07T14:10:26;28.70;21.50
29093;DHT22;16167;48.768;14.984;2023-05-07T14:12:54;28.70;24.70
29093;DHT22;16167;48.768;14.984;2023-05-07T14:15:22;29.00;23.60
29093;DHT22;16167;48.768;14.984;2023-05-07T14:17:50;29.20;25.10
29093;DHT22;16167;48.768;14.984;2023-05-07T14:20:18;29.30;20.20
29093;DHT22;16167;48.768;14.984;2023-05-07T14:22:46;29.20;24.00
29093;DHT22;16167;48.768;14.984;2023-05-07T14:25:15;29.30;23.60
29093;DHT22;16167;48.768;14.984;2023-05-07T14:27:43;29.30;24.00
29093;DHT22;16167;48.768;14.984;2023-05-07T14:30:11;29.20;20.50
29093;DHT22;16167;48.768;14.984;2023-05-07T14:32:39;28.90;21.40
29093;DHT22;16167;48.768;14.984;2023-05-07T14:35:08;28.90;22.70
29093;DHT22;16167;48.768;14.984;2023-05-07T14:37:36;28.70;25.20
29093;DHT22;16167;48.768;14.984;2023-05-07T14:40:05;28.60;21.90
29093;DHT22;16167;48.768;14.984;2023-05-07T14:42:35;28.60;24.30
29093;DHT22;16167;48.768;14.984;2023-05-07T14:45:03;28.60;25.40
29093;DHT22;16167;48.768;14.984;2023-05-07T14:47:31;28.20;23.90
29093;DHT22;16167;48.768;14.984;2023-05-07T14:49:59;27.60;24.80
29093;DHT22;16167;48.768;14.984;2023-05-07T14:52:27;27.20;25.40
29093;DHT22;16167;48.768;14.984;2023-05-07T14:54:55;27.00;26.30
29093;DHT22;16167;48.768;14.984;2023-05-07T14:57:23;26.60;26.20
29093;DHT22;16167;48.768;14.984;2023-05-07T14:59:53;26.10;27.00
29093;DHT22;16167;48.768;14.984;2023-05-07T15:02:21;25.60;27.20
29093;DHT22;16167;48.768;14.984;2023-05-07T15:04:49;25.10;26.80
29093;DHT22;16167;48.768;14.984;2023-05-07T15:07:17;24.70;27.30
29093;DHT22;16167;48.768;14.984;2023-05-07T15:09:45;24.20;28.30
29093;DHT22;16167;48.768;14.984;2023-05-07T15:12:13;23.90;28.40
29093;DHT22;16167;48.768;14.984;2023-05-07T15:14:41;23.50;28.50
29093;DHT22;16167;48.768;14.984;2023-05-07T15:17:12;23.30;29.50
29093;DHT22;16167;48.768;14.984;2023-05-07T15:19:41;23.00;29.60
29093;DHT22;16167;48.768;14.984;2023-05-07T15:22:09;22.90;30.10
29093;DHT22;16167;48.768;14.984;2023-05-07T15:24:37;22.70;31.30
29093;DHT22;16167;48.768;14.984;2023-05-07T15:27:05;22.60;30.90
29093;DHT22;16167;48.768;14.984;2023-05-07T15:29:32;22.50;30.50
29093;DHT22;16167;48.768;14.984;2023-05-07T15:32:00;22.30;30.10
29093;DHT22;16167;48.768;14.984;2023-05-07T15:34:30;22.10;29.40
29093;DHT22;16167;48.768;14.984;2023-05-07T15:36:58;21.90;32.20
29093;DHT22;16167;48.768;14.984;2023-05-07T15:39:26;21.80;31.50
29093;DHT22;16167;48.768;14.984;2023-05-07T15:41:53;21.70;31.00
29093;DHT22;16167;48.768;14.984;2023-05-07T15:44:21;21.60;30.90